Brooks, Kentucky
Current Conditions -  °F | °C
As of 10:56 AM on Wednesday 26 Nov 2014 (Local Time) from KSDF Reporting Station
Haze Haze  
Wind Chill: 37°   Ceiling: Unl
Heat Index: 37°   Visibility: 6mi
Dew Point: 29°   Wind: 3mph
Humidity: 73%   Direction: NA
Pressure: 30.13"   Gusts: NA
Location:  38.06°N, 85.71°W
Report Text: KSDF 261556Z VRB03KT 6SM HZ FEW035 FEW250 03/M02 A3013 RMK AO2 SLP206 T00281017
Loading
Personal Weather Stations






























Interactive Weather Map New forecast layout! Learn more

10-Day Weather Forecast

Advertisements
Track Severe Weather on mobile